createdAt,value
2018-04-23T00:00:50.463Z,9.63
2018-04-23T00:03:18.068Z,9.57
2018-04-23T00:05:45.732Z,8.27
2018-04-23T00:08:13.318Z,9.17
2018-04-23T00:10:40.924Z,9.47
2018-04-23T00:13:08.585Z,8.47
2018-04-23T00:15:36.202Z,10.87
2018-04-23T00:18:03.808Z,9.70
2018-04-23T00:20:31.451Z,8.57
2018-04-23T00:22:59.161Z,8.70
2018-04-23T00:25:26.793Z,9.30
2018-04-23T00:27:54.543Z,9.40
2018-04-23T00:30:22.147Z,7.97
2018-04-23T00:32:49.794Z,8.43
2018-04-23T00:35:17.717Z,9.30
2018-04-23T00:37:45.381Z,8.77
2018-04-23T00:40:13.059Z,8.80
2018-04-23T00:42:40.737Z,8.57
2018-04-23T00:45:08.337Z,9.00
2018-04-23T00:47:35.995Z,8.67
2018-04-23T00:50:03.703Z,8.57
2018-04-23T00:52:31.288Z,8.20
2018-04-23T00:54:59.051Z,8.83
2018-04-23T00:57:26.675Z,7.60
2018-04-23T00:59:54.350Z,9.87
2018-04-23T01:02:21.937Z,9.93
2018-04-23T01:04:49.569Z,8.50
2018-04-23T01:07:17.249Z,9.00
2018-04-23T01:09:44.945Z,9.40
2018-04-23T01:12:12.729Z,7.50
2018-04-23T01:14:40.376Z,8.27
2018-04-23T01:17:08.018Z,8.20
2018-04-23T01:19:35.632Z,8.63
2018-04-23T01:22:03.247Z,9.10
2018-04-23T01:24:30.896Z,9.27
2018-04-23T01:26:58.553Z,9.53
2018-04-23T01:29:26.189Z,7.47
2018-04-23T01:31:53.845Z,8.33
2018-04-23T01:34:21.507Z,8.90
2018-04-23T01:36:49.162Z,8.07
2018-04-23T01:39:16.743Z,9.10
2018-04-23T01:41:44.423Z,7.40
2018-04-23T01:44:12.049Z,8.77
2018-04-23T01:46:39.686Z,8.30
2018-04-23T01:49:07.332Z,9.23
2018-04-23T01:51:34.990Z,8.10
2018-04-23T01:54:02.662Z,8.20
2018-04-23T01:56:30.275Z,9.70
2018-04-23T01:58:57.875Z,9.40
2018-04-23T02:01:25.537Z,9.23
2018-04-23T02:03:53.134Z,9.03
2018-04-23T02:06:20.766Z,9.13
2018-04-23T02:08:48.421Z,9.20
2018-04-23T02:11:16.031Z,9.20
2018-04-23T02:13:43.697Z,8.50
2018-04-23T02:16:11.338Z,9.20
2018-04-23T02:18:39.006Z,8.17
2018-04-23T02:21:06.639Z,8.90
2018-04-23T02:23:34.277Z,9.63
2018-04-23T02:26:01.954Z,9.80
2018-04-23T02:28:29.566Z,8.90
2018-04-23T02:30:57.204Z,8.67
2018-04-23T02:33:24.810Z,11.33
2018-04-23T02:35:52.496Z,10.00
2018-04-23T02:38:20.105Z,10.20
2018-04-23T02:40:47.769Z,10.13
2018-04-23T02:43:15.398Z,10.00
2018-04-23T02:45:43.071Z,9.40
2018-04-23T02:48:10.699Z,11.30
2018-04-23T02:50:38.361Z,9.23
2018-04-23T02:53:06.025Z,9.30
2018-04-23T02:55:33.687Z,10.47
2018-04-23T02:58:01.351Z,9.30
2018-04-23T03:00:29.006Z,9.23
2018-04-23T03:02:56.699Z,10.93
2018-04-23T03:05:24.323Z,10.03
2018-04-23T03:07:51.988Z,10.03
2018-04-23T03:10:19.579Z,8.60
2018-04-23T03:12:47.224Z,9.40
2018-04-23T03:15:14.882Z,11.57
2018-04-23T03:17:42.557Z,9.40
2018-04-23T03:20:10.152Z,9.53
2018-04-23T03:22:37.840Z,9.77
2018-04-23T03:25:05.523Z,9.23
2018-04-23T03:27:34.251Z,9.07
2018-04-23T03:30:01.857Z,9.80
2018-04-23T03:32:29.500Z,9.97
2018-04-23T03:34:57.131Z,9.50
2018-04-23T03:37:24.802Z,10.67
2018-04-23T03:39:52.435Z,10.10
2018-04-23T03:42:20.158Z,10.23
2018-04-23T03:44:47.772Z,10.07
2018-04-23T03:47:15.532Z,8.83
2018-04-23T03:49:43.190Z,9.77
2018-04-23T03:52:10.847Z,9.53
2018-04-23T03:54:38.460Z,9.03
2018-04-23T03:57:06.119Z,10.30
2018-04-23T03:59:33.777Z,9.63
2018-04-23T04:02:01.396Z,9.30
2018-04-23T04:04:29.079Z,10.87
2018-04-23T04:06:56.703Z,9.53
2018-04-23T04:09:24.397Z,10.70
2018-04-23T04:11:52.084Z,10.10
2018-04-23T04:14:31.556Z,10.50
2018-04-23T04:16:59.378Z,10.10
2018-04-23T04:19:27.047Z,11.17
2018-04-23T04:21:54.742Z,10.50
2018-04-23T04:24:22.375Z,10.60
2018-04-23T04:26:50.049Z,19.13
2018-04-23T04:29:17.661Z,23.20
2018-04-23T04:31:45.322Z,20.20
2018-04-23T04:34:13.008Z,15.87
2018-04-23T04:36:40.648Z,14.87
2018-04-23T04:39:09.143Z,11.47
2018-04-23T04:41:36.797Z,11.63
2018-04-23T04:44:04.452Z,9.70
2018-04-23T04:46:32.073Z,10.83
2018-04-23T04:48:59.742Z,9.97
2018-04-23T04:51:27.386Z,39.13
2018-04-23T04:53:55.054Z,40.33
2018-04-23T04:56:22.731Z,13.13
2018-04-23T04:58:50.347Z,10.57
2018-04-23T05:01:18.070Z,11.00
2018-04-23T05:03:46.012Z,14.37
2018-04-23T05:06:13.633Z,16.07
2018-04-23T05:08:41.445Z,13.70
2018-04-23T05:11:09.145Z,13.77
2018-04-23T05:13:36.784Z,13.83
2018-04-23T05:16:04.525Z,12.40
2018-04-23T05:18:32.176Z,11.90
2018-04-23T05:20:59.838Z,10.00
2018-04-23T05:23:27.503Z,10.57
2018-04-23T05:25:55.471Z,10.93
2018-04-23T05:28:23.144Z,9.67
2018-04-23T05:30:50.754Z,9.50
2018-04-23T05:33:18.363Z,8.87
2018-04-23T05:35:46.007Z,10.47
2018-04-23T05:38:13.688Z,11.07
2018-04-23T05:40:41.403Z,12.23
2018-04-23T05:43:09.067Z,10.83
2018-04-23T05:45:36.672Z,11.50
2018-04-23T05:48:04.330Z,14.50
2018-04-23T05:50:31.992Z,13.90
2018-04-23T05:52:59.620Z,11.67
2018-04-23T05:55:27.298Z,14.60
2018-04-23T05:57:54.954Z,14.87
2018-04-23T06:00:22.577Z,17.27
2018-04-23T06:02:50.245Z,17.13
2018-04-23T06:05:17.835Z,13.57
2018-04-23T06:07:45.416Z,14.13
2018-04-23T06:10:13.079Z,14.33
2018-04-23T06:12:40.698Z,12.67
2018-04-23T06:15:08.395Z,10.07
2018-04-23T06:17:36.012Z,13.33
2018-04-23T06:20:03.700Z,13.07
2018-04-23T06:22:31.324Z,12.43
2018-04-23T06:24:59.118Z,14.40
2018-04-23T06:27:26.785Z,16.73
2018-04-23T06:29:54.473Z,13.73
2018-04-23T06:32:22.144Z,12.80
2018-04-23T06:34:49.756Z,13.70
2018-04-23T06:37:17.422Z,13.80
2018-04-23T06:39:45.030Z,13.13
2018-04-23T06:42:12.685Z,11.50
2018-04-23T06:44:40.609Z,12.20
2018-04-23T06:47:08.399Z,11.80
2018-04-23T06:49:36.017Z,11.37
2018-04-23T06:52:03.669Z,13.53
2018-04-23T06:54:32.056Z,11.73
2018-04-23T06:56:59.651Z,11.80
2018-04-23T06:59:27.352Z,12.50
2018-04-23T07:01:54.962Z,9.53
2018-04-23T07:04:22.624Z,10.77
2018-04-23T07:06:50.287Z,10.90
2018-04-23T07:09:17.949Z,9.77
2018-04-23T07:11:45.612Z,11.53
2018-04-23T07:14:13.252Z,11.50
2018-04-23T07:16:41.072Z,11.80
2018-04-23T07:19:08.659Z,11.97
2018-04-23T07:21:36.783Z,10.73
2018-04-23T07:24:04.410Z,10.77
2018-04-23T07:26:32.117Z,13.10
2018-04-23T07:28:59.816Z,11.50
2018-04-23T07:31:27.500Z,11.47
2018-04-23T07:33:55.117Z,10.60
2018-04-23T07:36:22.750Z,10.07
2018-04-23T07:38:50.426Z,9.80
2018-04-23T07:41:18.053Z,10.57
2018-04-23T07:43:45.731Z,11.33
2018-04-23T07:46:13.393Z,10.43
2018-04-23T07:48:41.388Z,9.83
2018-04-23T07:51:09.022Z,10.33
2018-04-23T07:53:36.726Z,12.23
2018-04-23T07:56:04.337Z,10.27
2018-04-23T07:58:31.976Z,10.27
2018-04-23T08:00:59.648Z,11.53
2018-04-23T08:03:28.478Z,10.20
2018-04-23T08:05:56.541Z,10.60
2018-04-23T08:08:24.259Z,9.50
2018-04-23T08:10:51.922Z,9.47
2018-04-23T08:13:19.537Z,10.40
2018-04-23T08:15:47.240Z,9.73
2018-04-23T08:18:14.891Z,9.80
2018-04-23T08:20:42.592Z,8.40
2018-04-23T08:23:10.276Z,8.80
2018-04-23T08:25:37.927Z,9.17
2018-04-23T08:28:06.266Z,10.10
2018-04-23T08:30:33.921Z,9.73
2018-04-23T08:33:01.758Z,8.43
2018-04-23T08:35:29.411Z,9.33
2018-04-23T08:37:57.335Z,8.90
2018-04-23T08:40:24.969Z,7.67
2018-04-23T08:42:52.654Z,9.17
2018-04-23T08:45:20.289Z,9.40
2018-04-23T08:47:47.946Z,8.60
2018-04-23T08:50:15.568Z,7.70
2018-04-23T08:52:43.287Z,9.33
2018-04-23T08:55:10.993Z,9.40
2018-04-23T08:57:38.691Z,8.50
2018-04-23T09:00:06.370Z,10.00
2018-04-23T09:02:34.044Z,8.93
2018-04-23T09:05:01.681Z,9.47
2018-04-23T09:07:29.341Z,8.30
2018-04-23T09:09:57.024Z,7.87
2018-04-23T09:12:24.704Z,8.40
2018-04-23T09:14:52.399Z,8.30
2018-04-23T09:17:20.049Z,7.47
2018-04-23T09:19:48.412Z,8.43
2018-04-23T09:22:16.109Z,7.70
2018-04-23T09:24:43.826Z,7.80
2018-04-23T09:27:11.488Z,8.13
2018-04-23T09:29:39.119Z,7.57
2018-04-23T09:32:06.812Z,7.07
2018-04-23T09:34:35.370Z,7.60
2018-04-23T09:37:03.008Z,6.83
2018-04-23T09:39:30.592Z,6.30
2018-04-23T09:41:58.253Z,7.43
2018-04-23T09:44:26.010Z,7.03
2018-04-23T09:46:53.613Z,7.20
2018-04-23T09:49:21.268Z,6.73
2018-04-23T09:51:48.884Z,6.70
2018-04-23T09:54:16.514Z,6.37
2018-04-23T09:56:44.177Z,5.60
2018-04-23T09:59:11.845Z,4.93
2018-04-23T10:01:45.119Z,5.70
2018-04-23T10:04:12.842Z,5.27
2018-04-23T10:06:40.488Z,6.77
2018-04-23T10:09:08.143Z,5.03
2018-04-23T10:11:35.819Z,5.10
2018-04-23T10:14:03.481Z,4.07
2018-04-23T10:16:31.189Z,4.20
2018-04-23T10:18:58.899Z,3.50
2018-04-23T10:21:26.954Z,3.80
2018-04-23T10:23:54.595Z,4.83
2018-04-23T10:26:22.301Z,4.07
2018-04-23T10:28:49.921Z,3.37
2018-04-23T10:31:17.534Z,4.90
2018-04-23T10:33:45.176Z,4.13
2018-04-23T10:36:12.935Z,3.70
2018-04-23T10:38:40.630Z,3.90
2018-04-23T10:41:08.254Z,4.30
2018-04-23T10:43:35.907Z,3.83
2018-04-23T10:46:03.566Z,4.43
2018-04-23T10:48:31.183Z,4.10
2018-04-23T10:50:58.848Z,3.97
2018-04-23T10:53:26.467Z,4.13
2018-04-23T10:55:54.149Z,4.00
2018-04-23T10:58:21.775Z,3.47
2018-04-23T11:00:49.436Z,3.67
2018-04-23T11:03:17.032Z,3.83
2018-04-23T11:05:44.697Z,4.20
2018-04-23T11:08:12.324Z,4.00
2018-04-23T11:10:39.965Z,3.60
2018-04-23T11:13:07.595Z,3.67
2018-04-23T11:15:35.255Z,3.77
2018-04-23T11:18:02.910Z,3.60
2018-04-23T11:20:30.543Z,4.13
2018-04-23T11:22:58.226Z,4.40
2018-04-23T11:25:25.855Z,4.50
2018-04-23T11:27:53.583Z,5.20
2018-04-23T11:30:22.205Z,4.10
2018-04-23T11:32:49.868Z,3.53
2018-04-23T11:35:17.490Z,3.67
2018-04-23T11:37:45.156Z,3.80
2018-04-23T11:40:12.809Z,3.70
2018-04-23T11:42:40.469Z,3.60
2018-04-23T11:45:08.152Z,3.40
2018-04-23T11:47:35.847Z,4.00
2018-04-23T11:50:03.499Z,4.07
2018-04-23T11:52:31.219Z,3.40
2018-04-23T11:54:58.840Z,3.90
2018-04-23T11:57:26.555Z,4.00
2018-04-23T11:59:54.497Z,4.40
2018-04-23T12:02:22.133Z,3.80
2018-04-23T12:04:49.799Z,3.40
2018-04-23T12:07:17.507Z,4.20
2018-04-23T12:09:45.199Z,3.87
2018-04-23T12:12:12.806Z,3.70
2018-04-23T12:14:40.498Z,4.20
2018-04-23T12:17:08.168Z,5.03
2018-04-23T12:19:35.829Z,4.40
2018-04-23T12:22:03.561Z,4.13
2018-04-23T12:24:31.265Z,4.87
2018-04-23T12:26:58.875Z,3.90
2018-04-23T12:29:26.612Z,3.73
2018-04-23T12:31:54.310Z,4.17
2018-04-23T12:34:22.732Z,4.43
2018-04-23T12:36:50.366Z,4.33
2018-04-23T12:39:19.016Z,4.43
2018-04-23T12:41:46.629Z,3.77
2018-04-23T12:44:15.219Z,3.83
2018-04-23T12:46:43.290Z,4.00
2018-04-23T12:49:10.998Z,3.90
2018-04-23T12:51:38.665Z,4.10
2018-04-23T12:54:06.364Z,3.77
2018-04-23T12:56:34.188Z,4.57
2018-04-23T12:59:01.829Z,4.50
2018-04-23T13:01:30.829Z,4.00
2018-04-23T13:03:58.573Z,3.30
2018-04-23T13:06:26.606Z,4.07
2018-04-23T13:08:55.536Z,3.40
2018-04-23T13:11:23.240Z,4.17
2018-04-23T13:13:50.878Z,3.03
2018-04-23T13:16:19.219Z,3.27
2018-04-23T13:18:46.976Z,3.50
2018-04-23T13:21:14.760Z,3.53
2018-04-23T13:23:42.442Z,3.10
2018-04-23T13:26:10.134Z,4.50
2018-04-23T13:28:37.825Z,3.90
2018-04-23T13:31:06.290Z,3.90
2018-04-23T13:33:33.967Z,3.60
2018-04-23T13:36:01.767Z,3.47
2018-04-23T13:38:29.434Z,3.70
2018-04-23T13:40:57.151Z,3.07
2018-04-23T13:43:25.385Z,3.70
2018-04-23T13:45:52.979Z,3.77
2018-04-23T13:48:20.702Z,3.97
2018-04-23T13:50:48.379Z,3.40
2018-04-23T13:53:16.050Z,5.30
2018-04-23T13:55:43.689Z,4.27
2018-04-23T13:58:11.369Z,3.57
2018-04-23T14:00:39.045Z,3.43
2018-04-23T14:03:06.786Z,4.20
2018-04-23T14:05:34.508Z,6.67
2018-04-23T14:08:02.159Z,3.70
2018-04-23T14:10:29.855Z,3.53
2018-04-23T14:12:57.517Z,4.07
2018-04-23T14:15:25.219Z,3.30
2018-04-23T14:17:52.856Z,3.87
2018-04-23T14:20:20.509Z,3.57
2018-04-23T14:22:48.183Z,3.10
2018-04-23T14:25:15.825Z,3.57
2018-04-23T14:27:43.498Z,3.73
2018-04-23T14:30:11.174Z,2.87
2018-04-23T14:32:38.869Z,3.83
2018-04-23T14:35:06.556Z,3.53
2018-04-23T14:37:34.232Z,3.37
2018-04-23T14:40:01.843Z,3.67
2018-04-23T14:42:29.500Z,3.40
2018-04-23T14:44:57.120Z,2.90
2018-04-23T14:47:24.712Z,3.20
2018-04-23T14:49:52.367Z,3.80
2018-04-23T14:52:20.005Z,3.40
2018-04-23T14:54:47.602Z,3.20
2018-04-23T14:57:15.288Z,3.10
2018-04-23T14:59:42.897Z,4.00
2018-04-23T15:02:10.676Z,4.00
2018-04-23T15:04:38.304Z,3.07
2018-04-23T15:07:07.227Z,3.63
2018-04-23T15:09:34.943Z,4.27
2018-04-23T15:12:02.655Z,3.73
2018-04-23T15:14:30.285Z,3.30
2018-04-23T15:16:57.932Z,3.07
2018-04-23T15:19:26.729Z,3.17
2018-04-23T15:21:54.414Z,2.83
2018-04-23T15:24:22.111Z,2.90
2018-04-23T15:26:49.864Z,3.20
2018-04-23T15:29:17.585Z,3.70
2018-04-23T15:31:45.249Z,3.20
2018-04-23T15:34:12.950Z,3.63
2018-04-23T15:36:40.601Z,3.80
2018-04-23T15:39:08.338Z,3.73
2018-04-23T15:41:35.956Z,2.53
2018-04-23T15:44:03.728Z,3.10
2018-04-23T15:46:31.376Z,3.40
2018-04-23T15:48:59.027Z,2.73
2018-04-23T15:51:26.797Z,3.33
2018-04-23T15:53:54.459Z,3.87
2018-04-23T15:56:22.142Z,3.50
2018-04-23T15:58:49.850Z,3.40
2018-04-23T16:01:17.560Z,3.40
2018-04-23T16:03:45.260Z,3.70
2018-04-23T16:06:12.911Z,3.40
2018-04-23T16:08:40.637Z,2.90
2018-04-23T16:11:08.354Z,3.20
2018-04-23T16:13:35.983Z,2.50
2018-04-23T16:16:03.656Z,3.50
2018-04-23T16:18:31.342Z,4.10
2018-04-23T16:20:58.975Z,3.50
2018-04-23T16:23:26.896Z,4.00
2018-04-23T16:25:54.538Z,3.87
2018-04-23T16:28:22.225Z,3.30
2018-04-23T16:30:49.837Z,3.13
2018-04-23T16:33:17.509Z,3.60
2018-04-23T16:35:45.591Z,2.93
2018-04-23T16:38:14.498Z,3.07
2018-04-23T16:40:42.108Z,3.10
2018-04-23T16:43:09.781Z,2.90
2018-04-23T16:45:38.873Z,2.87
2018-04-23T16:48:07.636Z,3.00
2018-04-23T16:50:35.459Z,3.37
2018-04-23T16:53:03.180Z,2.70
2018-04-23T16:55:30.824Z,3.60
2018-04-23T16:57:58.652Z,3.67
2018-04-23T17:00:26.331Z,3.50
2018-04-23T17:02:53.973Z,4.33
2018-04-23T17:05:21.825Z,3.20
2018-04-23T17:07:49.515Z,2.87
2018-04-23T17:10:17.216Z,3.13
2018-04-23T17:12:44.964Z,2.57
2018-04-23T17:15:12.664Z,2.97
2018-04-23T17:17:40.300Z,2.90
2018-04-23T17:20:08.988Z,3.10
2018-04-23T17:22:36.693Z,3.13
2018-04-23T17:25:04.456Z,3.03
2018-04-23T17:27:32.132Z,3.07
2018-04-23T17:30:00.042Z,3.60
2018-04-23T17:32:27.668Z,2.80
2018-04-23T17:34:55.452Z,3.20
2018-04-23T17:37:23.149Z,3.60
2018-04-23T17:39:50.856Z,3.17
2018-04-23T17:42:18.561Z,3.60
2018-04-23T17:44:46.246Z,4.93
2018-04-23T17:47:14.094Z,3.20
2018-04-23T17:49:41.831Z,3.60
2018-04-23T17:52:09.486Z,4.20
2018-04-23T17:54:37.176Z,4.20
2018-04-23T17:57:04.901Z,5.10
2018-04-23T17:59:32.634Z,3.70
2018-04-23T18:02:00.358Z,3.53
2018-04-23T18:04:28.331Z,3.90
2018-04-23T18:06:56.026Z,3.67
2018-04-23T18:09:23.727Z,3.50
2018-04-23T18:11:51.800Z,3.97
2018-04-23T18:14:19.566Z,4.10
2018-04-23T18:16:47.271Z,4.70
2018-04-23T18:19:14.986Z,3.37
2018-04-23T18:21:42.646Z,3.93
2018-04-23T18:24:10.362Z,4.00
2018-04-23T18:26:38.000Z,3.23
2018-04-23T18:29:05.679Z,4.30
2018-04-23T18:31:33.456Z,4.40
2018-04-23T18:34:01.193Z,4.20
2018-04-23T18:36:29.966Z,3.83
2018-04-23T18:38:57.594Z,3.73
2018-04-23T18:41:25.298Z,4.20
2018-04-23T18:43:53.021Z,4.87
2018-04-23T18:46:20.648Z,4.30
2018-04-23T18:48:48.337Z,4.43
2018-04-23T18:51:15.997Z,4.23
2018-04-23T18:53:43.695Z,4.57
2018-04-23T18:56:11.403Z,4.03
2018-04-23T18:58:39.063Z,4.63
2018-04-23T19:01:06.705Z,4.50
2018-04-23T19:03:34.348Z,4.23
2018-04-23T19:06:01.958Z,4.70
2018-04-23T19:08:29.628Z,4.30
2018-04-23T19:10:57.369Z,4.97
2018-04-23T19:13:24.949Z,4.40
2018-04-23T19:15:52.574Z,5.20
2018-04-23T19:18:20.960Z,4.60
2018-04-23T19:20:48.698Z,4.20
2018-04-23T19:23:17.473Z,4.60
2018-04-23T19:25:45.142Z,4.97
2018-04-23T19:28:13.050Z,5.53
2018-04-23T19:30:40.884Z,4.33
2018-04-23T19:33:08.598Z,3.40
2018-04-23T19:35:36.272Z,4.77
2018-04-23T19:38:03.958Z,4.20
2018-04-23T19:40:31.762Z,4.13
2018-04-23T19:42:59.450Z,4.43
2018-04-23T19:45:27.281Z,4.40
2018-04-23T19:47:55.232Z,3.40
2018-04-23T19:50:22.912Z,4.47
2018-04-23T19:52:51.612Z,3.43
2018-04-23T19:55:19.788Z,3.50
2018-04-23T19:57:47.543Z,4.10
2018-04-23T20:00:16.992Z,4.10
2018-04-23T20:02:45.128Z,4.33
2018-04-23T20:05:13.815Z,3.40
2018-04-23T20:07:41.580Z,4.53
2018-04-23T20:10:09.491Z,6.23
2018-04-23T20:12:37.309Z,4.77
2018-04-23T20:15:05.075Z,4.17
2018-04-23T20:17:32.786Z,4.80
2018-04-23T20:20:00.444Z,5.00
2018-04-23T20:22:28.130Z,5.10
2018-04-23T20:24:55.832Z,5.10
2018-04-23T20:27:25.651Z,5.43
2018-04-23T20:29:53.345Z,5.10
2018-04-23T20:32:21.101Z,4.83
2018-04-23T20:34:48.794Z,6.37
2018-04-23T20:37:17.009Z,5.90
2018-04-23T20:39:45.128Z,4.40
2018-04-23T20:42:12.852Z,4.93
2018-04-23T20:44:40.584Z,5.43
2018-04-23T20:47:08.278Z,5.50
2018-04-23T20:49:36.216Z,5.10
2018-04-23T20:52:03.936Z,4.10
2018-04-23T20:54:31.567Z,4.90
2018-04-23T20:56:59.348Z,3.07
2018-04-23T20:59:26.981Z,2.17
2018-04-23T21:01:54.877Z,2.00
2018-04-23T21:04:22.523Z,1.83
2018-04-23T21:06:50.173Z,1.73
2018-04-23T21:09:17.830Z,1.00
2018-04-23T21:11:45.436Z,1.70
2018-04-23T21:14:13.104Z,2.03
2018-04-23T21:16:40.816Z,1.57
2018-04-23T21:19:08.460Z,1.90
2018-04-23T21:21:36.091Z,1.53
2018-04-23T21:24:03.812Z,1.37
2018-04-23T21:26:31.413Z,2.23
2018-04-23T21:28:59.078Z,1.70
2018-04-23T21:31:26.679Z,1.80
2018-04-23T21:33:54.357Z,1.90
2018-04-23T21:36:22.109Z,1.20
2018-04-23T21:38:49.790Z,1.63
2018-04-23T21:41:17.441Z,1.53
2018-04-23T21:43:45.131Z,1.50
2018-04-23T21:46:13.555Z,1.70
2018-04-23T21:48:41.281Z,1.47
2018-04-23T21:51:08.911Z,1.47
2018-04-23T21:53:36.563Z,1.40
2018-04-23T21:56:04.947Z,1.10
2018-04-23T21:58:32.683Z,2.10
2018-04-23T22:01:00.575Z,1.43
2018-04-23T22:03:28.240Z,1.10
2018-04-23T22:05:55.912Z,1.50
2018-04-23T22:08:23.553Z,2.37
2018-04-23T22:10:51.243Z,1.37
2018-04-23T22:13:18.836Z,1.50
2018-04-23T22:15:46.479Z,1.90
2018-04-23T22:18:14.166Z,1.80
2018-04-23T22:20:41.798Z,1.30
2018-04-23T22:23:09.463Z,1.50
2018-04-23T22:25:37.078Z,1.70
2018-04-23T22:28:04.780Z,2.17
2018-04-23T22:30:32.440Z,1.50
2018-04-23T22:33:00.022Z,2.03
2018-04-23T22:35:27.684Z,2.23
2018-04-23T22:37:55.409Z,2.47
2018-04-23T22:40:23.046Z,1.60
2018-04-23T22:42:50.704Z,2.17
2018-04-23T22:45:18.358Z,2.30
2018-04-23T22:47:47.152Z,2.23
2018-04-23T22:50:16.077Z,1.67
2018-04-23T22:52:43.852Z,1.43
2018-04-23T22:55:11.504Z,2.07
2018-04-23T22:57:39.110Z,1.93
2018-04-23T23:00:06.762Z,1.80
2018-04-23T23:02:34.372Z,1.73
2018-04-23T23:05:01.982Z,1.57
2018-04-23T23:07:29.613Z,1.77
2018-04-23T23:09:57.247Z,1.70
2018-04-23T23:12:24.921Z,2.23
2018-04-23T23:14:52.564Z,1.77
2018-04-23T23:17:20.231Z,2.10
2018-04-23T23:19:47.876Z,1.67
2018-04-23T23:22:15.451Z,1.37
2018-04-23T23:24:43.145Z,1.80
2018-04-23T23:27:10.806Z,1.67
2018-04-23T23:29:38.395Z,2.00
2018-04-23T23:32:06.665Z,1.57
2018-04-23T23:34:34.314Z,1.13
2018-04-23T23:37:01.889Z,2.90
2018-04-23T23:39:29.547Z,2.03
2018-04-23T23:41:57.599Z,2.57
2018-04-23T23:44:25.309Z,2.03
2018-04-23T23:46:52.904Z,2.27
2018-04-23T23:49:20.540Z,2.47
2018-04-23T23:51:48.175Z,2.10
2018-04-23T23:54:15.803Z,2.57
2018-04-23T23:56:43.483Z,2.60
2018-04-23T23:59:11.140Z,2.67
